sensor_id;sensor_type;location;lat;lon;timestamp;P1;durP1;ratioP1;P2;durP2;ratioP2
32491;SDS011;20605;49.742;18.802;2023-03-26T00:01:07;3.10;;;2.10;;
32491;SDS011;20605;49.742;18.802;2023-03-26T00:03:38;2.20;;;2.00;;
32491;SDS011;20605;49.742;18.802;2023-03-26T00:06:12;2.20;;;1.90;;
32491;SDS011;20605;49.742;18.802;2023-03-26T00:08:40;2.60;;;2.30;;
32491;SDS011;20605;49.742;18.802;2023-03-26T00:11:09;2.20;;;1.80;;
32491;SDS011;20605;49.742;18.802;2023-03-26T00:13:36;2.60;;;2.20;;
32491;SDS011;20605;49.742;18.802;2023-03-26T00:16:02;2.90;;;2.00;;
32491;SDS011;20605;49.742;18.802;2023-03-26T00:18:28;4.70;;;2.20;;
32491;SDS011;20605;49.742;18.802;2023-03-26T00:20:58;2.30;;;1.90;;
32491;SDS011;20605;49.742;18.802;2023-03-26T00:23:25;3.00;;;2.20;;
32491;SDS011;20605;49.742;18.802;2023-03-26T00:25:52;3.10;;;1.90;;
32491;SDS011;20605;49.742;18.802;2023-03-26T00:28:20;2.60;;;2.10;;
32491;SDS011;20605;49.742;18.802;2023-03-26T00:30:47;2.60;;;1.90;;
32491;SDS011;20605;49.742;18.802;2023-03-26T00:33:13;3.90;;;1.90;;
32491;SDS011;20605;49.742;18.802;2023-03-26T00:35:42;2.50;;;1.90;;
32491;SDS011;20605;49.742;18.802;2023-03-26T00:38:14;2.80;;;1.80;;
32491;SDS011;20605;49.742;18.802;2023-03-26T00:40:40;3.00;;;1.90;;
32491;SDS011;20605;49.742;18.802;2023-03-26T00:43:12;2.30;;;1.70;;
32491;SDS011;20605;49.742;18.802;2023-03-26T00:45:45;2.30;;;1.50;;
32491;SDS011;20605;49.742;18.802;2023-03-26T00:48:13;3.30;;;2.00;;
32491;SDS011;20605;49.742;18.802;2023-03-26T00:50:40;2.20;;;1.90;;
32491;SDS011;20605;49.742;18.802;2023-03-26T00:53:07;2.50;;;2.20;;
32491;SDS011;20605;49.742;18.802;2023-03-26T00:55:34;5.30;;;2.90;;
32491;SDS011;20605;49.742;18.802;2023-03-26T00:58:00;6.40;;;3.60;;
32491;SDS011;20605;49.742;18.802;2023-03-26T01:00:30;7.00;;;4.60;;
32491;SDS011;20605;49.742;18.802;2023-03-26T01:03:02;8.30;;;5.90;;
32491;SDS011;20605;49.742;18.802;2023-03-26T01:08:02;7.70;;;4.80;;
32491;SDS011;20605;49.742;18.802;2023-03-26T01:10:39;7.60;;;4.50;;
32491;SDS011;20605;49.742;18.802;2023-03-26T01:13:07;6.90;;;4.50;;
32491;SDS011;20605;49.742;18.802;2023-03-26T01:15:33;4.80;;;3.20;;
32491;SDS011;20605;49.742;18.802;2023-03-26T01:18:04;3.30;;;2.20;;
32491;SDS011;20605;49.742;18.802;2023-03-26T01:20:34;4.20;;;2.20;;
32491;SDS011;20605;49.742;18.802;2023-03-26T01:23:11;5.80;;;2.30;;
32491;SDS011;20605;49.742;18.802;2023-03-26T01:25:44;3.00;;;2.00;;
32491;SDS011;20605;49.742;18.802;2023-03-26T01:28:19;5.40;;;1.90;;
32491;SDS011;20605;49.742;18.802;2023-03-26T01:30:48;3.30;;;2.10;;
32491;SDS011;20605;49.742;18.802;2023-03-26T01:33:25;3.50;;;1.80;;
32491;SDS011;20605;49.742;18.802;2023-03-26T01:36:04;3.40;;;1.70;;
32491;SDS011;20605;49.742;18.802;2023-03-26T01:38:54;1.50;;;1.20;;
32491;SDS011;20605;49.742;18.802;2023-03-26T01:41:35;3.30;;;2.00;;
32491;SDS011;20605;49.742;18.802;2023-03-26T01:47:16;3.70;;;2.20;;
32491;SDS011;20605;49.742;18.802;2023-03-26T01:49:43;6.30;;;2.50;;
32491;SDS011;20605;49.742;18.802;2023-03-26T01:52:11;2.70;;;1.90;;
32491;SDS011;20605;49.742;18.802;2023-03-26T01:54:39;4.40;;;1.70;;
32491;SDS011;20605;49.742;18.802;2023-03-26T02:02:25;4.00;;;1.60;;
32491;SDS011;20605;49.742;18.802;2023-03-26T02:05:04;1.70;;;1.50;;
32491;SDS011;20605;49.742;18.802;2023-03-26T02:10:43;3.30;;;1.70;;
32491;SDS011;20605;49.742;18.802;2023-03-26T02:13:11;2.50;;;1.60;;
32491;SDS011;20605;49.742;18.802;2023-03-26T02:15:43;3.60;;;1.60;;
32491;SDS011;20605;49.742;18.802;2023-03-26T02:18:21;4.50;;;1.80;;
32491;SDS011;20605;49.742;18.802;2023-03-26T02:20:52;3.60;;;1.60;;
32491;SDS011;20605;49.742;18.802;2023-03-26T02:23:19;4.10;;;1.90;;
32491;SDS011;20605;49.742;18.802;2023-03-26T02:25:46;3.70;;;1.90;;
32491;SDS011;20605;49.742;18.802;2023-03-26T02:28:12;2.70;;;1.50;;
32491;SDS011;20605;49.742;18.802;2023-03-26T02:30:38;3.00;;;1.60;;
32491;SDS011;20605;49.742;18.802;2023-03-26T02:33:04;3.90;;;2.10;;
32491;SDS011;20605;49.742;18.802;2023-03-26T02:35:37;3.50;;;1.70;;
32491;SDS011;20605;49.742;18.802;2023-03-26T02:38:04;5.10;;;2.30;;
32491;SDS011;20605;49.742;18.802;2023-03-26T02:40:30;4.80;;;1.80;;
32491;SDS011;20605;49.742;18.802;2023-03-26T02:42:56;4.40;;;1.90;;
32491;SDS011;20605;49.742;18.802;2023-03-26T02:45:23;4.40;;;2.10;;
32491;SDS011;20605;49.742;18.802;2023-03-26T02:48:04;5.70;;;2.10;;
32491;SDS011;20605;49.742;18.802;2023-03-26T02:50:44;3.50;;;1.80;;
32491;SDS011;20605;49.742;18.802;2023-03-26T02:53:30;3.40;;;1.60;;
32491;SDS011;20605;49.742;18.802;2023-03-26T02:56:31;5.80;;;2.10;;
32491;SDS011;20605;49.742;18.802;2023-03-26T02:59:11;6.00;;;1.90;;
32491;SDS011;20605;49.742;18.802;2023-03-26T03:01:39;6.10;;;2.10;;
32491;SDS011;20605;49.742;18.802;2023-03-26T03:04:11;3.80;;;1.90;;
32491;SDS011;20605;49.742;18.802;2023-03-26T03:06:38;4.30;;;1.80;;
32491;SDS011;20605;49.742;18.802;2023-03-26T03:09:06;4.20;;;1.60;;
32491;SDS011;20605;49.742;18.802;2023-03-26T03:11:35;5.60;;;1.80;;
32491;SDS011;20605;49.742;18.802;2023-03-26T03:14:01;4.50;;;1.70;;
32491;SDS011;20605;49.742;18.802;2023-03-26T03:16:29;5.40;;;1.90;;
32491;SDS011;20605;49.742;18.802;2023-03-26T03:18:57;7.90;;;1.70;;
32491;SDS011;20605;49.742;18.802;2023-03-26T03:21:27;4.80;;;2.20;;
32491;SDS011;20605;49.742;18.802;2023-03-26T03:23:54;5.10;;;2.30;;
32491;SDS011;20605;49.742;18.802;2023-03-26T03:26:21;3.40;;;2.30;;
32491;SDS011;20605;49.742;18.802;2023-03-26T03:28:53;6.60;;;2.60;;
32491;SDS011;20605;49.742;18.802;2023-03-26T03:31:22;6.30;;;2.00;;
32491;SDS011;20605;49.742;18.802;2023-03-26T03:33:50;6.00;;;2.30;;
32491;SDS011;20605;49.742;18.802;2023-03-26T03:36:18;4.00;;;1.70;;
32491;SDS011;20605;49.742;18.802;2023-03-26T03:39:03;6.30;;;2.10;;
32491;SDS011;20605;49.742;18.802;2023-03-26T03:41:30;3.00;;;1.90;;
32491;SDS011;20605;49.742;18.802;2023-03-26T03:43:56;3.30;;;2.10;;
32491;SDS011;20605;49.742;18.802;2023-03-26T03:46:27;2.90;;;1.70;;
32491;SDS011;20605;49.742;18.802;2023-03-26T03:48:53;4.00;;;1.70;;
32491;SDS011;20605;49.742;18.802;2023-03-26T03:51:36;4.10;;;1.80;;
32491;SDS011;20605;49.742;18.802;2023-03-26T03:54:08;6.10;;;1.90;;
32491;SDS011;20605;49.742;18.802;2023-03-26T03:57:00;2.90;;;1.60;;
32491;SDS011;20605;49.742;18.802;2023-03-26T03:59:30;3.70;;;1.90;;
32491;SDS011;20605;49.742;18.802;2023-03-26T04:01:56;2.20;;;1.80;;
32491;SDS011;20605;49.742;18.802;2023-03-26T04:04:45;4.50;;;1.90;;
32491;SDS011;20605;49.742;18.802;2023-03-26T04:07:15;3.50;;;1.90;;
32491;SDS011;20605;49.742;18.802;2023-03-26T04:10:19;2.70;;;1.80;;
32491;SDS011;20605;49.742;18.802;2023-03-26T04:13:03;3.50;;;1.80;;
32491;SDS011;20605;49.742;18.802;2023-03-26T04:15:49;2.50;;;1.50;;
32491;SDS011;20605;49.742;18.802;2023-03-26T04:18:16;3.50;;;1.70;;
32491;SDS011;20605;49.742;18.802;2023-03-26T04:20:43;3.50;;;1.70;;
32491;SDS011;20605;49.742;18.802;2023-03-26T04:23:17;4.00;;;1.60;;
32491;SDS011;20605;49.742;18.802;2023-03-26T04:25:46;3.30;;;1.40;;
32491;SDS011;20605;49.742;18.802;2023-03-26T04:28:35;4.10;;;1.60;;
32491;SDS011;20605;49.742;18.802;2023-03-26T04:31:28;3.80;;;2.00;;
32491;SDS011;20605;49.742;18.802;2023-03-26T04:34:04;4.10;;;1.80;;
32491;SDS011;20605;49.742;18.802;2023-03-26T04:36:37;4.00;;;1.70;;
32491;SDS011;20605;49.742;18.802;2023-03-26T04:39:05;3.60;;;1.80;;
32491;SDS011;20605;49.742;18.802;2023-03-26T04:41:54;3.90;;;1.70;;
32491;SDS011;20605;49.742;18.802;2023-03-26T04:44:20;3.10;;;1.60;;
32491;SDS011;20605;49.742;18.802;2023-03-26T04:46:55;6.10;;;1.90;;
32491;SDS011;20605;49.742;18.802;2023-03-26T04:49:34;2.90;;;1.50;;
32491;SDS011;20605;49.742;18.802;2023-03-26T04:52:00;3.70;;;1.80;;
32491;SDS011;20605;49.742;18.802;2023-03-26T04:54:49;4.10;;;1.60;;
32491;SDS011;20605;49.742;18.802;2023-03-26T05:00:05;4.40;;;2.00;;
32491;SDS011;20605;49.742;18.802;2023-03-26T05:02:45;4.00;;;2.10;;
32491;SDS011;20605;49.742;18.802;2023-03-26T05:05:15;2.90;;;1.70;;
32491;SDS011;20605;49.742;18.802;2023-03-26T05:07:42;2.80;;;1.80;;
32491;SDS011;20605;49.742;18.802;2023-03-26T05:10:12;2.10;;;1.40;;
32491;SDS011;20605;49.742;18.802;2023-03-26T05:12:45;3.70;;;1.70;;
32491;SDS011;20605;49.742;18.802;2023-03-26T05:15:16;2.90;;;1.80;;
32491;SDS011;20605;49.742;18.802;2023-03-26T05:18:00;5.00;;;1.80;;
32491;SDS011;20605;49.742;18.802;2023-03-26T05:20:36;7.30;;;1.90;;
32491;SDS011;20605;49.742;18.802;2023-03-26T05:23:04;3.70;;;1.60;;
32491;SDS011;20605;49.742;18.802;2023-03-26T05:25:33;2.80;;;1.50;;
32491;SDS011;20605;49.742;18.802;2023-03-26T05:28:00;4.40;;;1.80;;
32491;SDS011;20605;49.742;18.802;2023-03-26T05:30:32;3.80;;;1.90;;
32491;SDS011;20605;49.742;18.802;2023-03-26T05:32:59;4.40;;;1.80;;
32491;SDS011;20605;49.742;18.802;2023-03-26T05:35:28;3.90;;;2.00;;
32491;SDS011;20605;49.742;18.802;2023-03-26T05:37:54;5.80;;;1.60;;
32491;SDS011;20605;49.742;18.802;2023-03-26T05:40:22;4.40;;;1.60;;
32491;SDS011;20605;49.742;18.802;2023-03-26T05:42:53;3.00;;;2.20;;
32491;SDS011;20605;49.742;18.802;2023-03-26T05:45:27;3.60;;;2.30;;
32491;SDS011;20605;49.742;18.802;2023-03-26T05:47:53;3.80;;;2.20;;
32491;SDS011;20605;49.742;18.802;2023-03-26T05:50:21;5.10;;;2.20;;
32491;SDS011;20605;49.742;18.802;2023-03-26T05:52:48;4.10;;;2.30;;
32491;SDS011;20605;49.742;18.802;2023-03-26T05:55:32;5.90;;;1.70;;
32491;SDS011;20605;49.742;18.802;2023-03-26T05:58:17;3.20;;;1.90;;
32491;SDS011;20605;49.742;18.802;2023-03-26T06:01:16;4.40;;;2.40;;
32491;SDS011;20605;49.742;18.802;2023-03-26T06:04:21;3.40;;;2.30;;
32491;SDS011;20605;49.742;18.802;2023-03-26T06:07:08;3.80;;;2.00;;
32491;SDS011;20605;49.742;18.802;2023-03-26T06:09:40;4.00;;;2.00;;
32491;SDS011;20605;49.742;18.802;2023-03-26T06:12:07;4.50;;;1.90;;
32491;SDS011;20605;49.742;18.802;2023-03-26T06:14:36;4.10;;;1.90;;
32491;SDS011;20605;49.742;18.802;2023-03-26T06:17:22;5.40;;;2.10;;
32491;SDS011;20605;49.742;18.802;2023-03-26T06:20:07;2.90;;;1.90;;
32491;SDS011;20605;49.742;18.802;2023-03-26T06:22:37;3.10;;;1.60;;
32491;SDS011;20605;49.742;18.802;2023-03-26T06:25:26;3.90;;;2.20;;
32491;SDS011;20605;49.742;18.802;2023-03-26T06:28:14;3.40;;;2.10;;
32491;SDS011;20605;49.742;18.802;2023-03-26T06:31:09;3.80;;;1.80;;
32491;SDS011;20605;49.742;18.802;2023-03-26T06:33:41;7.40;;;2.00;;
32491;SDS011;20605;49.742;18.802;2023-03-26T06:36:08;3.00;;;2.00;;
32491;SDS011;20605;49.742;18.802;2023-03-26T06:38:34;4.20;;;1.70;;
32491;SDS011;20605;49.742;18.802;2023-03-26T06:41:06;4.10;;;1.80;;
32491;SDS011;20605;49.742;18.802;2023-03-26T06:43:52;3.00;;;1.80;;
32491;SDS011;20605;49.742;18.802;2023-03-26T06:46:21;4.00;;;1.80;;
32491;SDS011;20605;49.742;18.802;2023-03-26T06:49:06;3.00;;;1.60;;
32491;SDS011;20605;49.742;18.802;2023-03-26T06:51:41;4.40;;;2.00;;
32491;SDS011;20605;49.742;18.802;2023-03-26T06:54:18;2.50;;;1.80;;
32491;SDS011;20605;49.742;18.802;2023-03-26T06:56:55;3.60;;;1.80;;
32491;SDS011;20605;49.742;18.802;2023-03-26T07:00:00;2.70;;;1.60;;
32491;SDS011;20605;49.742;18.802;2023-03-26T07:02:45;3.00;;;1.80;;
32491;SDS011;20605;49.742;18.802;2023-03-26T07:05:29;5.10;;;2.60;;
32491;SDS011;20605;49.742;18.802;2023-03-26T07:08:23;2.50;;;1.50;;
32491;SDS011;20605;49.742;18.802;2023-03-26T07:11:12;2.60;;;2.00;;
32491;SDS011;20605;49.742;18.802;2023-03-26T07:14:07;3.60;;;1.60;;
32491;SDS011;20605;49.742;18.802;2023-03-26T07:16:41;5.00;;;2.10;;
32491;SDS011;20605;49.742;18.802;2023-03-26T07:19:17;2.20;;;1.70;;
32491;SDS011;20605;49.742;18.802;2023-03-26T07:21:44;3.10;;;2.10;;
32491;SDS011;20605;49.742;18.802;2023-03-26T07:24:40;2.60;;;1.80;;
32491;SDS011;20605;49.742;18.802;2023-03-26T07:30:37;2.00;;;1.80;;
32491;SDS011;20605;49.742;18.802;2023-03-26T07:36:29;2.50;;;1.50;;
32491;SDS011;20605;49.742;18.802;2023-03-26T07:45:57;2.50;;;1.60;;
32491;SDS011;20605;49.742;18.802;2023-03-26T07:48:38;3.60;;;1.60;;
32491;SDS011;20605;49.742;18.802;2023-03-26T07:51:24;2.60;;;1.70;;
32491;SDS011;20605;49.742;18.802;2023-03-26T07:54:13;4.10;;;1.30;;
32491;SDS011;20605;49.742;18.802;2023-03-26T07:56:58;2.90;;;1.50;;
32491;SDS011;20605;49.742;18.802;2023-03-26T07:59:46;2.00;;;1.60;;
32491;SDS011;20605;49.742;18.802;2023-03-26T08:02:51;2.20;;;1.40;;
32491;SDS011;20605;49.742;18.802;2023-03-26T08:05:42;3.10;;;1.80;;
32491;SDS011;20605;49.742;18.802;2023-03-26T08:15:04;1.40;;;1.30;;
32491;SDS011;20605;49.742;18.802;2023-03-26T08:20:31;2.70;;;1.80;;
32491;SDS011;20605;49.742;18.802;2023-03-26T08:23:26;3.30;;;2.30;;
32491;SDS011;20605;49.742;18.802;2023-03-26T08:26:02;2.50;;;1.70;;
32491;SDS011;20605;49.742;18.802;2023-03-26T08:31:43;3.10;;;1.80;;
32491;SDS011;20605;49.742;18.802;2023-03-26T08:34:12;2.40;;;1.60;;
32491;SDS011;20605;49.742;18.802;2023-03-26T08:36:38;3.20;;;1.90;;
32491;SDS011;20605;49.742;18.802;2023-03-26T08:39:04;3.40;;;2.10;;
32491;SDS011;20605;49.742;18.802;2023-03-26T09:02:37;1.90;;;1.30;;
32491;SDS011;20605;49.742;18.802;2023-03-26T09:08:47;3.30;;;2.00;;
32491;SDS011;20605;49.742;18.802;2023-03-26T09:17:58;3.70;;;1.60;;
32491;SDS011;20605;49.742;18.802;2023-03-26T09:21:31;2.60;;;1.80;;
32491;SDS011;20605;49.742;18.802;2023-03-26T09:35:37;2.50;;;2.00;;
32491;SDS011;20605;49.742;18.802;2023-03-26T09:41:05;1.70;;;1.60;;
32491;SDS011;20605;49.742;18.802;2023-03-26T09:52:50;1.90;;;1.30;;
32491;SDS011;20605;49.742;18.802;2023-03-26T09:55:41;1.40;;;1.30;;
32491;SDS011;20605;49.742;18.802;2023-03-26T10:15:55;4.50;;;3.20;;
32491;SDS011;20605;49.742;18.802;2023-03-26T10:18:31;6.90;;;4.70;;
32491;SDS011;20605;49.742;18.802;2023-03-26T10:29:25;3.20;;;2.10;;
32491;SDS011;20605;49.742;18.802;2023-03-26T10:32:21;2.00;;;1.70;;
32491;SDS011;20605;49.742;18.802;2023-03-26T10:38:05;68.20;;;39.80;;
32491;SDS011;20605;49.742;18.802;2023-03-26T10:40:38;63.50;;;38.40;;
32491;SDS011;20605;49.742;18.802;2023-03-26T10:43:21;13.20;;;9.50;;
32491;SDS011;20605;49.742;18.802;2023-03-26T10:52:08;6.70;;;3.90;;
32491;SDS011;20605;49.742;18.802;2023-03-26T10:57:17;3.60;;;3.30;;
32491;SDS011;20605;49.742;18.802;2023-03-26T10:59:52;10.70;;;7.10;;
32491;SDS011;20605;49.742;18.802;2023-03-26T11:04:54;37.60;;;23.10;;
32491;SDS011;20605;49.742;18.802;2023-03-26T11:18:52;180.00;;;96.30;;
32491;SDS011;20605;49.742;18.802;2023-03-26T11:22:16;17.50;;;9.90;;
32491;SDS011;20605;49.742;18.802;2023-03-26T11:25:02;22.50;;;10.70;;
32491;SDS011;20605;49.742;18.802;2023-03-26T11:30:20;34.50;;;16.50;;
32491;SDS011;20605;49.742;18.802;2023-03-26T11:32:49;5.70;;;3.30;;
32491;SDS011;20605;49.742;18.802;2023-03-26T11:37:52;8.90;;;5.80;;
32491;SDS011;20605;49.742;18.802;2023-03-26T11:40:30;3.80;;;2.30;;
32491;SDS011;20605;49.742;18.802;2023-03-26T11:43:06;4.50;;;3.30;;
32491;SDS011;20605;49.742;18.802;2023-03-26T11:45:37;4.30;;;2.50;;
32491;SDS011;20605;49.742;18.802;2023-03-26T11:48:11;3.30;;;1.90;;
32491;SDS011;20605;49.742;18.802;2023-03-26T11:50:46;4.00;;;2.30;;
32491;SDS011;20605;49.742;18.802;2023-03-26T11:53:16;3.60;;;2.30;;
32491;SDS011;20605;49.742;18.802;2023-03-26T11:55:50;2.30;;;2.10;;
32491;SDS011;20605;49.742;18.802;2023-03-26T11:58:38;3.60;;;2.40;;
32491;SDS011;20605;49.742;18.802;2023-03-26T12:01:12;2.40;;;1.70;;
32491;SDS011;20605;49.742;18.802;2023-03-26T12:03:40;1.90;;;1.50;;
32491;SDS011;20605;49.742;18.802;2023-03-26T12:06:09;3.00;;;1.70;;
32491;SDS011;20605;49.742;18.802;2023-03-26T12:08:50;2.40;;;1.60;;
32491;SDS011;20605;49.742;18.802;2023-03-26T12:11:16;1.90;;;1.30;;
32491;SDS011;20605;49.742;18.802;2023-03-26T12:13:52;2.10;;;1.50;;
32491;SDS011;20605;49.742;18.802;2023-03-26T12:16:22;3.00;;;2.10;;
32491;SDS011;20605;49.742;18.802;2023-03-26T12:21:44;3.10;;;2.00;;
32491;SDS011;20605;49.742;18.802;2023-03-26T12:24:25;3.30;;;2.00;;
32491;SDS011;20605;49.742;18.802;2023-03-26T12:27:00;3.00;;;1.70;;
32491;SDS011;20605;49.742;18.802;2023-03-26T12:29:51;1.60;;;1.50;;
32491;SDS011;20605;49.742;18.802;2023-03-26T12:32:24;2.10;;;1.80;;
32491;SDS011;20605;49.742;18.802;2023-03-26T12:34:56;3.00;;;1.90;;
32491;SDS011;20605;49.742;18.802;2023-03-26T12:37:32;2.80;;;1.60;;
32491;SDS011;20605;49.742;18.802;2023-03-26T12:40:45;3.20;;;1.80;;
32491;SDS011;20605;49.742;18.802;2023-03-26T12:43:00;3.60;;;2.20;;
32491;SDS011;20605;49.742;18.802;2023-03-26T12:45:39;4.30;;;2.50;;
32491;SDS011;20605;49.742;18.802;2023-03-26T12:48:11;4.20;;;2.50;;
32491;SDS011;20605;49.742;18.802;2023-03-26T12:58:34;3.30;;;1.90;;
32491;SDS011;20605;49.742;18.802;2023-03-26T13:01:17;2.30;;;1.60;;
32491;SDS011;20605;49.742;18.802;2023-03-26T13:06:49;2.60;;;1.60;;
32491;SDS011;20605;49.742;18.802;2023-03-26T13:09:32;2.70;;;1.30;;
32491;SDS011;20605;49.742;18.802;2023-03-26T13:15:12;3.60;;;1.90;;
32491;SDS011;20605;49.742;18.802;2023-03-26T13:17:52;2.30;;;1.70;;
32491;SDS011;20605;49.742;18.802;2023-03-26T13:20:48;2.10;;;1.80;;
32491;SDS011;20605;49.742;18.802;2023-03-26T13:24:07;3.20;;;1.70;;
32491;SDS011;20605;49.742;18.802;2023-03-26T13:35:35;2.30;;;1.50;;
32491;SDS011;20605;49.742;18.802;2023-03-26T13:48:10;2.60;;;2.30;;
32491;SDS011;20605;49.742;18.802;2023-03-26T13:50:41;3.00;;;1.70;;
32491;SDS011;20605;49.742;18.802;2023-03-26T13:53:16;1.90;;;1.70;;
32491;SDS011;20605;49.742;18.802;2023-03-26T13:55:52;3.20;;;2.10;;
32491;SDS011;20605;49.742;18.802;2023-03-26T14:01:18;2.40;;;2.10;;
32491;SDS011;20605;49.742;18.802;2023-03-26T14:03:53;5.70;;;2.00;;
32491;SDS011;20605;49.742;18.802;2023-03-26T14:25:53;2.60;;;1.50;;
32491;SDS011;20605;49.742;18.802;2023-03-26T14:31:38;2.60;;;1.60;;
32491;SDS011;20605;49.742;18.802;2023-03-26T14:53:27;2.20;;;1.60;;
32491;SDS011;20605;49.742;18.802;2023-03-26T14:56:01;2.40;;;1.70;;
32491;SDS011;20605;49.742;18.802;2023-03-26T15:39:42;3.40;;;2.00;;
32491;SDS011;20605;49.742;18.802;2023-03-26T15:56:59;9.20;;;4.50;;
32491;SDS011;20605;49.742;18.802;2023-03-26T15:59:38;7.90;;;3.30;;
32491;SDS011;20605;49.742;18.802;2023-03-26T16:08:03;29.90;;;13.30;;
32491;SDS011;20605;49.742;18.802;2023-03-26T16:10:54;43.50;;;19.50;;
32491;SDS011;20605;49.742;18.802;2023-03-26T16:13:23;12.20;;;6.70;;
32491;SDS011;20605;49.742;18.802;2023-03-26T16:15:54;6.10;;;3.20;;
32491;SDS011;20605;49.742;18.802;2023-03-26T16:18:26;7.10;;;3.80;;
32491;SDS011;20605;49.742;18.802;2023-03-26T16:29:18;24.10;;;10.30;;
32491;SDS011;20605;49.742;18.802;2023-03-26T16:34:50;22.50;;;10.10;;
32491;SDS011;20605;49.742;18.802;2023-03-26T16:40:33;35.10;;;14.40;;
32491;SDS011;20605;49.742;18.802;2023-03-26T16:43:10;43.70;;;19.90;;
32491;SDS011;20605;49.742;18.802;2023-03-26T16:46:13;48.60;;;19.80;;
32491;SDS011;20605;49.742;18.802;2023-03-26T17:05:19;15.70;;;7.20;;
32491;SDS011;20605;49.742;18.802;2023-03-26T17:10:29;15.00;;;7.50;;
32491;SDS011;20605;49.742;18.802;2023-03-26T17:16:14;63.40;;;27.10;;
32491;SDS011;20605;49.742;18.802;2023-03-26T17:19:05;53.40;;;23.10;;
32491;SDS011;20605;49.742;18.802;2023-03-26T17:24:47;50.20;;;23.20;;
32491;SDS011;20605;49.742;18.802;2023-03-26T17:33:35;141.00;;;71.80;;
32491;SDS011;20605;49.742;18.802;2023-03-26T17:41:04;108.30;;;50.10;;
32491;SDS011;20605;49.742;18.802;2023-03-26T17:43:41;160.80;;;82.80;;
32491;SDS011;20605;49.742;18.802;2023-03-26T17:46:24;125.60;;;74.30;;
32491;SDS011;20605;49.742;18.802;2023-03-26T17:48:56;60.30;;;32.70;;
32491;SDS011;20605;49.742;18.802;2023-03-26T17:54:28;58.00;;;30.20;;
32491;SDS011;20605;49.742;18.802;2023-03-26T17:56:58;45.20;;;25.20;;
32491;SDS011;20605;49.742;18.802;2023-03-26T17:59:28;52.80;;;29.00;;
32491;SDS011;20605;49.742;18.802;2023-03-26T18:01:58;67.70;;;36.40;;
32491;SDS011;20605;49.742;18.802;2023-03-26T18:04:29;56.70;;;30.30;;
32491;SDS011;20605;49.742;18.802;2023-03-26T18:15:42;30.30;;;16.40;;
32491;SDS011;20605;49.742;18.802;2023-03-26T18:21:07;23.10;;;13.50;;
32491;SDS011;20605;49.742;18.802;2023-03-26T18:23:45;11.20;;;7.70;;
32491;SDS011;20605;49.742;18.802;2023-03-26T18:26:35;12.60;;;9.10;;
32491;SDS011;20605;49.742;18.802;2023-03-26T18:31:52;15.60;;;9.40;;
32491;SDS011;20605;49.742;18.802;2023-03-26T18:34:22;11.70;;;6.80;;
32491;SDS011;20605;49.742;18.802;2023-03-26T18:39:36;13.50;;;8.00;;
32491;SDS011;20605;49.742;18.802;2023-03-26T18:42:03;13.60;;;10.00;;
32491;SDS011;20605;49.742;18.802;2023-03-26T18:44:40;19.50;;;13.60;;
32491;SDS011;20605;49.742;18.802;2023-03-26T18:47:07;14.50;;;8.60;;
32491;SDS011;20605;49.742;18.802;2023-03-26T18:49:37;10.60;;;6.90;;
32491;SDS011;20605;49.742;18.802;2023-03-26T18:52:03;15.80;;;10.30;;
32491;SDS011;20605;49.742;18.802;2023-03-26T18:54:32;15.00;;;11.10;;
32491;SDS011;20605;49.742;18.802;2023-03-26T18:57:06;15.10;;;9.40;;
32491;SDS011;20605;49.742;18.802;2023-03-26T18:59:36;15.60;;;9.20;;
32491;SDS011;20605;49.742;18.802;2023-03-26T19:02:11;14.90;;;10.40;;
32491;SDS011;20605;49.742;18.802;2023-03-26T19:04:43;20.00;;;11.40;;
32491;SDS011;20605;49.742;18.802;2023-03-26T19:07:12;18.50;;;10.10;;
32491;SDS011;20605;49.742;18.802;2023-03-26T19:09:40;17.80;;;10.10;;
32491;SDS011;20605;49.742;18.802;2023-03-26T19:12:17;14.90;;;9.60;;
32491;SDS011;20605;49.742;18.802;2023-03-26T19:14:53;16.80;;;10.40;;
32491;SDS011;20605;49.742;18.802;2023-03-26T19:17:19;79.30;;;39.10;;
32491;SDS011;20605;49.742;18.802;2023-03-26T19:19:46;108.90;;;54.90;;
32491;SDS011;20605;49.742;18.802;2023-03-26T19:22:14;66.90;;;34.50;;
32491;SDS011;20605;49.742;18.802;2023-03-26T19:24:41;33.30;;;18.50;;
32491;SDS011;20605;49.742;18.802;2023-03-26T19:27:09;19.70;;;12.10;;
32491;SDS011;20605;49.742;18.802;2023-03-26T19:29:55;18.00;;;9.50;;
32491;SDS011;20605;49.742;18.802;2023-03-26T19:32:28;13.30;;;8.80;;
32491;SDS011;20605;49.742;18.802;2023-03-26T19:35:16;16.80;;;9.00;;
32491;SDS011;20605;49.742;18.802;2023-03-26T19:37:48;21.90;;;13.40;;
32491;SDS011;20605;49.742;18.802;2023-03-26T19:40:18;18.10;;;9.80;;
32491;SDS011;20605;49.742;18.802;2023-03-26T19:42:46;17.40;;;10.50;;
32491;SDS011;20605;49.742;18.802;2023-03-26T19:45:15;16.90;;;8.80;;
32491;SDS011;20605;49.742;18.802;2023-03-26T19:47:44;15.30;;;11.10;;
32491;SDS011;20605;49.742;18.802;2023-03-26T19:50:19;25.20;;;16.40;;
32491;SDS011;20605;49.742;18.802;2023-03-26T19:53:14;46.20;;;24.20;;
32491;SDS011;20605;49.742;18.802;2023-03-26T19:56:08;44.40;;;25.10;;
32491;SDS011;20605;49.742;18.802;2023-03-26T19:58:40;36.30;;;21.20;;
32491;SDS011;20605;49.742;18.802;2023-03-26T20:01:13;24.60;;;16.00;;
32491;SDS011;20605;49.742;18.802;2023-03-26T20:03:45;21.20;;;15.00;;
32491;SDS011;20605;49.742;18.802;2023-03-26T20:06:14;17.40;;;12.20;;
32491;SDS011;20605;49.742;18.802;2023-03-26T20:08:41;20.30;;;11.90;;
32491;SDS011;20605;49.742;18.802;2023-03-26T20:11:13;18.60;;;11.30;;
32491;SDS011;20605;49.742;18.802;2023-03-26T20:13:50;17.00;;;10.30;;
32491;SDS011;20605;49.742;18.802;2023-03-26T20:18:50;16.70;;;12.10;;
32491;SDS011;20605;49.742;18.802;2023-03-26T20:21:15;24.80;;;16.50;;
32491;SDS011;20605;49.742;18.802;2023-03-26T20:23:41;29.60;;;20.10;;
32491;SDS011;20605;49.742;18.802;2023-03-26T20:26:12;50.10;;;26.30;;
32491;SDS011;20605;49.742;18.802;2023-03-26T20:28:39;38.70;;;20.80;;
32491;SDS011;20605;49.742;18.802;2023-03-26T20:31:10;22.70;;;12.30;;
32491;SDS011;20605;49.742;18.802;2023-03-26T20:33:38;25.80;;;14.60;;
32491;SDS011;20605;49.742;18.802;2023-03-26T20:36:07;53.10;;;27.90;;
32491;SDS011;20605;49.742;18.802;2023-03-26T20:38:37;44.90;;;22.00;;
32491;SDS011;20605;49.742;18.802;2023-03-26T20:41:02;38.00;;;20.60;;
32491;SDS011;20605;49.742;18.802;2023-03-26T20:43:28;29.40;;;14.40;;
32491;SDS011;20605;49.742;18.802;2023-03-26T20:45:54;24.10;;;13.10;;
32491;SDS011;20605;49.742;18.802;2023-03-26T20:48:22;21.50;;;11.40;;
32491;SDS011;20605;49.742;18.802;2023-03-26T20:50:50;18.30;;;10.40;;
32491;SDS011;20605;49.742;18.802;2023-03-26T20:53:16;17.80;;;10.10;;
32491;SDS011;20605;49.742;18.802;2023-03-26T20:55:43;21.30;;;11.80;;
32491;SDS011;20605;49.742;18.802;2023-03-26T20:58:16;29.10;;;16.80;;
32491;SDS011;20605;49.742;18.802;2023-03-26T21:00:46;25.90;;;15.30;;
32491;SDS011;20605;49.742;18.802;2023-03-26T21:03:14;29.50;;;16.70;;
32491;SDS011;20605;49.742;18.802;2023-03-26T21:05:42;34.70;;;19.50;;
32491;SDS011;20605;49.742;18.802;2023-03-26T21:08:12;32.60;;;19.40;;
32491;SDS011;20605;49.742;18.802;2023-03-26T21:10:43;26.50;;;16.40;;
32491;SDS011;20605;49.742;18.802;2023-03-26T21:15:52;18.30;;;12.50;;
32491;SDS011;20605;49.742;18.802;2023-03-26T21:18:18;15.80;;;9.60;;
32491;SDS011;20605;49.742;18.802;2023-03-26T21:20:44;17.70;;;11.00;;
32491;SDS011;20605;49.742;18.802;2023-03-26T21:23:26;19.70;;;12.20;;
32491;SDS011;20605;49.742;18.802;2023-03-26T21:28:48;11.80;;;7.00;;